Time;durP1;ratioP1;P1;durP2;ratioP2;P2;SDS_P1;SDS_P2;PMS_P1;PMS_P2;Temp;Humidity;BMP_temperature;BMP_pressure;BME280_temperature;BME280_humidity;BME280_pressure;Samples;Min_cycle;Max_cycle;Signal;HPM_P1;HPM_P2
2021/10/08 00:01:21;;;;;;;45.97;25.67;;;;;;;6.01;100.00;102583.66;5046552;28;20041;-86
2021/10/08 00:03:48;;;;;;;48.92;27.33;;;;;;;5.97;100.00;102587.44;5037317;28;20041;-86
2021/10/08 00:06:14;;;;;;;48.00;28.17;;;;;;;5.92;100.00;102589.47;5022787;28;20045;-85
2021/10/08 00:08:41;;;;;;;57.60;30.77;;;;;;;5.96;100.00;102585.75;5038184;28;20037;-87
2021/10/08 00:11:07;;;;;;;46.05;26.98;;;;;;;5.91;100.00;102585.13;5019180;28;20041;-85
2021/10/08 00:13:32;;;;;;;43.00;26.92;;;;;;;5.87;100.00;102586.25;5023384;28;20048;-89
2021/10/08 00:15:57;;;;;;;39.65;23.75;;;;;;;5.82;100.00;102589.16;5036130;28;20065;-88
2021/10/08 00:18:24;;;;;;;44.20;23.88;;;;;;;5.79;100.00;102591.16;5029583;28;20666;-90
2021/10/08 00:20:55;;;;;;;45.97;27.83;;;;;;;5.84;100.00;102594.41;5058546;28;20040;-87
2021/10/08 00:23:22;;;;;;;47.97;27.70;;;;;;;5.81;100.00;102595.47;5050158;28;20048;-88
2021/10/08 00:25:51;;;;;;;40.08;24.90;;;;;;;5.79;100.00;102600.00;5067152;28;20049;-87
2021/10/08 00:28:18;;;;;;;45.75;25.08;;;;;;;5.73;100.00;102599.53;5059048;28;20533;-89
2021/10/08 00:30:44;;;;;;;38.47;24.00;;;;;;;5.70;100.00;102600.56;5064124;28;20056;-86
2021/10/08 00:33:11;;;;;;;35.38;22.85;;;;;;;5.60;100.00;102602.00;5061524;28;20033;-88
2021/10/08 00:35:38;;;;;;;39.92;23.38;;;;;;;5.58;100.00;102598.56;5062138;28;20483;-86
2021/10/08 00:38:12;;;;;;;35.08;22.05;;;;;;;5.53;100.00;102604.19;5066628;28;20040;-88
2021/10/08 00:40:42;;;;;;;38.72;24.80;;;;;;;5.54;100.00;102597.03;5047786;28;20048;-86
2021/10/08 00:43:19;;;;;;;43.30;24.58;;;;;;;5.51;100.00;102598.06;5066036;28;20043;-89
2021/10/08 00:45:45;;;;;;;38.75;23.55;;;;;;;5.49;100.00;102599.94;5048600;28;20037;-87
2021/10/08 00:48:13;;;;;;;40.88;24.75;;;;;;;5.45;100.00;102590.44;5062775;28;20044;-87
2021/10/08 00:50:49;;;;;;;38.30;23.63;;;;;;;5.50;100.00;102595.50;5085328;28;20881;-86
2021/10/08 00:53:21;;;;;;;42.25;25.05;;;;;;;5.49;100.00;102594.63;5058682;28;20039;-87
2021/10/08 00:55:50;;;;;;;53.33;32.05;;;;;;;5.65;100.00;102595.47;5063291;28;20067;-88
2021/10/08 00:58:18;;;;;;;40.38;24.75;;;;;;;5.63;100.00;102596.50;5063669;28;20061;-88
2021/10/08 01:00:49;;;;;;;34.85;22.98;;;;;;;5.53;100.00;102595.34;5066310;28;20021;-87
2021/10/08 01:03:19;;;;;;;40.50;23.20;;;;;;;5.50;100.00;102604.34;5052216;28;20081;-87
2021/10/08 01:05:50;;;;;;;36.58;23.83;;;;;;;5.51;100.00;102598.06;5045464;28;20568;-85
2021/10/08 01:08:16;;;;;;;44.97;27.23;;;;;;;5.50;100.00;102601.69;5041529;28;20115;-85
2021/10/08 01:10:45;;;;;;;38.90;23.63;;;;;;;5.45;100.00;102606.41;5052850;28;20132;-87
2021/10/08 01:13:13;;;;;;;;;;;;;;;5.45;100.00;102601.09;5038347;28;20033;-86
2021/10/08 01:15:39;;;;;;;39.13;23.95;;;;;;;5.32;100.00;102594.72;5037282;28;19912;-87
2021/10/08 01:18:05;;;;;;;39.13;24.08;;;;;;;5.29;100.00;102603.72;5024951;28;20036;-88
2021/10/08 01:20:34;;;;;;;37.20;23.23;;;;;;;5.33;100.00;102602.63;5053655;28;20518;-86
2021/10/08 01:23:00;;;;;;;37.60;23.53;;;;;;;5.39;100.00;102601.44;5055406;28;20044;-89
2021/10/08 01:25:34;;;;;;;41.53;24.58;;;;;;;5.40;100.00;102597.81;5047663;28;20279;-86
2021/10/08 01:28:01;;;;;;;48.42;28.98;;;;;;;5.49;100.00;102605.28;5046826;28;20086;-87
2021/10/08 01:30:27;;;;;;;51.05;28.80;;;;;;;5.59;100.00;102598.50;5057632;28;20036;-90
2021/10/08 01:32:53;;;;;;;55.33;31.65;;;;;;;5.63;100.00;102605.34;5042714;28;20041;-86
2021/10/08 01:35:20;;;;;;;45.75;29.35;;;;;;;5.64;100.00;102601.75;5058352;28;20045;-87
2021/10/08 01:37:46;;;;;;;48.33;24.80;;;;;;;5.60;100.00;102596.69;5030487;28;20106;-87
2021/10/08 01:40:13;;;;;;;61.60;32.83;;;;;;;5.65;100.00;102603.47;5043423;28;20032;-86
2021/10/08 01:42:39;;;;;;;45.22;27.17;;;;;;;5.59;100.00;102609.16;5044889;28;20551;-88
2021/10/08 01:45:06;;;;;;;52.70;29.88;;;;;;;5.62;100.00;102606.31;5039692;28;20051;-88
2021/10/08 01:47:31;;;;;;;56.40;31.67;;;;;;;5.64;100.00;102606.22;5040016;28;20853;-85
2021/10/08 01:49:56;;;;;;;48.75;28.08;;;;;;;5.58;100.00;102604.78;5057846;28;20076;-86
2021/10/08 01:52:22;;;;;;;52.70;31.38;;;;;;;5.54;100.00;102605.88;5054541;28;20047;-85
2021/10/08 01:54:48;;;;;;;55.90;31.42;;;;;;;5.52;100.00;102602.44;5040038;28;20751;-88
2021/10/08 01:57:13;;;;;;;52.65;30.02;;;;;;;5.53;100.00;102598.84;5049715;28;20041;-87
2021/10/08 01:59:39;;;;;;;57.38;32.40;;;;;;;5.54;100.00;102605.03;5054621;28;20123;-88
2021/10/08 02:02:04;;;;;;;60.03;32.33;;;;;;;5.52;100.00;102601.59;5058298;28;20153;-85
2021/10/08 02:04:30;;;;;;;56.05;33.10;;;;;;;5.50;100.00;102596.38;5054606;28;20501;-90
2021/10/08 02:06:56;;;;;;;64.13;34.92;;;;;;;5.51;100.00;102600.72;5046323;28;20036;-87
2021/10/08 02:09:21;;;;;;;56.83;33.53;;;;;;;5.51;100.00;102599.88;5072497;28;20661;-86
2021/10/08 02:11:47;;;;;;;54.53;33.08;;;;;;;5.52;100.00;102594.44;5060960;28;20037;-87
2021/10/08 02:14:12;;;;;;;55.10;32.95;;;;;;;5.50;100.00;102595.50;5060040;28;20059;-87
2021/10/08 02:16:38;;;;;;;46.83;27.02;;;;;;;5.37;100.00;102601.50;5030872;28;20143;-89
2021/10/08 02:19:04;;;;;;;63.30;33.28;;;;;;;5.36;100.00;102598.94;5048513;28;20040;-87
2021/10/08 02:21:31;;;;;;;59.22;34.53;;;;;;;5.40;100.00;102592.50;5043570;28;20106;-89
2021/10/08 02:23:56;;;;;;;53.85;33.10;;;;;;;5.40;100.00;102597.81;5029248;28;20515;-87
2021/10/08 02:26:22;;;;;;;59.33;32.08;;;;;;;5.41;100.00;102602.22;5052069;28;20052;-88
2021/10/08 02:28:53;;;;;;;49.97;28.35;;;;;;;5.33;100.00;102594.66;5038242;28;20098;-89
2021/10/08 02:31:18;;;;;;;57.63;31.88;;;;;;;5.31;100.00;102595.69;5032754;28;20574;-89
2021/10/08 02:33:45;;;;;;;46.03;27.92;;;;;;;5.28;100.00;102595.84;5050791;28;20044;-88
2021/10/08 02:36:10;;;;;;;53.08;30.88;;;;;;;5.27;100.00;102596.81;5030011;28;20052;-85
2021/10/08 02:38:38;;;;;;;52.67;30.60;;;;;;;5.29;100.00;102600.22;5057096;28;20907;-86
2021/10/08 02:41:03;;;;;;;44.83;29.13;;;;;;;5.24;100.00;102602.31;5042545;28;20041;-89
2021/10/08 02:43:30;;;;;;;41.45;25.45;;;;;;;5.15;100.00;102609.84;5056697;28;20996;-88
2021/10/08 02:45:56;;;;;;;44.00;28.02;;;;;;;5.10;100.00;102603.06;5059859;28;20044;-89
2021/10/08 02:48:22;;;;;;;42.88;26.83;;;;;;;5.06;100.00;102607.66;5056981;28;20048;-90
2021/10/08 02:50:47;;;;;;;42.10;25.88;;;;;;;5.08;100.00;102608.47;5059450;28;20044;-86
2021/10/08 02:53:13;;;;;;;40.65;25.83;;;;;;;5.03;100.00;102607.00;5043137;28;20037;-88
2021/10/08 02:55:38;;;;;;;44.33;26.55;;;;;;;5.02;100.00;102608.78;5041354;28;20049;-87
2021/10/08 02:58:04;;;;;;;40.95;26.38;;;;;;;5.05;100.00;102610.44;5022469;28;20044;-87
2021/10/08 03:00:30;;;;;;;40.35;26.50;;;;;;;4.98;100.00;102608.13;5037677;28;20414;-85
2021/10/08 03:02:56;;;;;;;41.70;26.25;;;;;;;4.96;100.00;102607.31;5039071;28;20046;-87
2021/10/08 03:05:21;;;;;;;46.63;28.70;;;;;;;4.91;100.00;102604.06;5017457;28;20040;-85
2021/10/08 03:07:47;;;;;;;52.78;29.65;;;;;;;4.96;100.00;102607.31;5032522;28;20567;-88
2021/10/08 03:10:18;;;;;;;44.33;27.38;;;;;;;4.93;100.00;102606.63;5030467;28;20037;-87
2021/10/08 03:12:45;;;;;;;48.45;28.13;;;;;;;4.90;100.00;102612.13;5036222;28;20045;-87
2021/10/08 03:15:11;;;;;;;45.72;28.88;;;;;;;4.91;100.00;102603.19;5030909;28;20560;-87
2021/10/08 03:17:38;;;;;;;44.83;27.60;;;;;;;4.86;100.00;102602.56;5036674;28;20135;-85
2021/10/08 03:20:05;;;;;;;44.65;27.13;;;;;;;4.82;100.00;102604.56;5041841;28;20504;-87
2021/10/08 03:22:30;;;;;;;45.25;27.35;;;;;;;4.84;100.00;102604.47;5054367;28;20048;-85
2021/10/08 03:24:56;;;;;;;49.60;27.60;;;;;;;4.84;100.00;102602.69;5050259;28;20503;-85
2021/10/08 03:27:22;;;;;;;38.95;25.25;;;;;;;4.83;100.00;102608.06;5059349;28;20537;-85
2021/10/08 03:29:47;;;;;;;42.70;25.95;;;;;;;4.80;100.00;102606.44;5081895;28;20032;-87
2021/10/08 03:32:13;;;;;;;39.60;24.55;;;;;;;4.74;100.00;102607.63;5061090;28;20059;-87
2021/10/08 03:34:38;;;;;;;41.15;25.92;;;;;;;4.70;100.00;102611.41;5072291;28;20044;-88
2021/10/08 03:37:07;;;;;;;41.50;26.90;;;;;;;4.69;100.00;102601.72;5061491;28;20509;-88
2021/10/08 03:39:36;;;;;;;38.88;23.55;;;;;;;4.65;100.00;102601.94;5038689;28;20041;-86
2021/10/08 03:42:02;;;;;;;;;;;;;;;4.69;100.00;102604.38;5059002;28;20449;-84
2021/10/08 03:44:32;;;;;;;41.13;25.50;;;;;;;4.56;100.00;102605.09;5065685;28;20015;-88
2021/10/08 03:46:59;;;;;;;41.65;24.88;;;;;;;4.55;100.00;102612.22;5044929;28;20554;-88
2021/10/08 03:49:26;;;;;;;41.85;24.77;;;;;;;4.53;100.00;102606.97;5063797;28;20059;-87
2021/10/08 03:51:54;;;;;;;41.17;25.58;;;;;;;4.53;100.00;102614.09;5026872;28;20410;-88
2021/10/08 03:54:21;;;;;;;44.38;25.17;;;;;;;4.57;100.00;102612.97;5060511;28;20044;-85
2021/10/08 03:56:47;;;;;;;44.58;28.67;;;;;;;4.57;100.00;102609.47;5051716;28;20037;-86
2021/10/08 03:59:14;;;;;;;44.17;25.92;;;;;;;4.54;100.00;102613.13;5055785;28;20052;-85
2021/10/08 04:01:39;;;;;;;42.97;26.77;;;;;;;4.54;100.00;102613.13;5043400;28;20049;-90
2021/10/08 04:04:06;;;;;;;41.97;27.30;;;;;;;4.52;100.00;102613.22;5049070;28;20120;-87
2021/10/08 04:06:33;;;;;;;47.97;25.73;;;;;;;4.48;100.00;102616.13;5057986;28;20143;-87
2021/10/08 04:09:05;;;;;;;41.90;26.00;;;;;;;4.52;100.00;102617.69;5061280;28;20107;-86
2021/10/08 04:11:30;;;;;;;40.58;25.50;;;;;;;4.48;100.00;102616.97;5055912;28;20072;-85
2021/10/08 04:13:56;;;;;;;42.38;25.98;;;;;;;4.47;100.00;102620.59;5057808;28;20429;-88
2021/10/08 04:16:23;;;;;;;39.25;24.77;;;;;;;4.47;100.00;102617.06;5078161;28;20216;-88
2021/10/08 04:18:48;;;;;;;42.75;26.42;;;;;;;4.47;100.00;102620.59;5058668;28;20048;-86
2021/10/08 04:21:14;;;;;;;44.13;25.90;;;;;;;4.46;100.00;102624.19;5046035;28;20089;-87
2021/10/08 04:23:39;;;;;;;46.53;26.73;;;;;;;4.44;100.00;102623.41;5043581;28;20041;-85
2021/10/08 04:26:06;;;;;;;50.45;29.42;;;;;;;4.44;100.00;102620.75;5078943;28;20036;-85
2021/10/08 04:28:31;;;;;;;50.95;29.88;;;;;;;4.49;100.00;102628.50;5054989;28;20052;-86
2021/10/08 04:30:57;;;;;;;50.20;30.02;;;;;;;4.47;100.00;102630.38;5043893;28;20072;-85
2021/10/08 04:33:25;;;;;;;54.75;33.03;;;;;;;4.47;100.00;102619.72;5049982;28;20032;-87
2021/10/08 04:35:51;;;;;;;66.55;34.75;;;;;;;4.46;100.00;102624.19;5050824;28;20052;-86
2021/10/08 04:38:17;;;;;;;64.47;35.80;;;;;;;4.47;100.00;102631.22;5036511;28;20374;-87
2021/10/08 04:40:45;;;;;;;78.22;40.25;;;;;;;4.52;100.00;102623.88;5041538;28;20072;-88
2021/10/08 04:43:12;;;;;;;68.57;35.85;;;;;;;4.49;100.00;102628.50;5059734;28;20044;-86
2021/10/08 04:45:37;;;;;;;66.43;36.53;;;;;;;4.46;100.00;102629.50;5053594;28;20475;-87
2021/10/08 04:48:04;;;;;;;68.40;36.70;;;;;;;4.49;100.00;102634.66;5058659;28;20234;-85
2021/10/08 04:50:29;;;;;;;57.17;35.33;;;;;;;4.48;100.00;102624.09;5040887;28;20120;-87
2021/10/08 04:52:55;;;;;;;61.00;34.70;;;;;;;4.44;100.00;102625.22;5056065;28;20182;-86
2021/10/08 04:55:22;;;;;;;66.82;37.53;;;;;;;4.46;100.00;102625.97;5070333;28;20113;-85
2021/10/08 04:57:48;;;;;;;74.75;39.72;;;;;;;4.51;100.00;102623.94;5064384;28;20438;-87
2021/10/08 05:00:13;;;;;;;62.28;36.65;;;;;;;4.46;100.00;102624.19;5069898;28;20041;-84
2021/10/08 05:02:39;;;;;;;69.38;38.58;;;;;;;4.45;100.00;102629.56;5028750;28;20037;-87
2021/10/08 05:05:06;;;;;;;62.20;36.53;;;;;;;4.42;100.00;102629.72;5025588;28;20476;-86
2021/10/08 05:07:31;;;;;;;76.80;39.92;;;;;;;4.38;100.00;102629.03;5054792;28;20049;-86
2021/10/08 05:09:57;;;;;;;72.78;37.40;;;;;;;4.38;100.00;102631.69;5053668;28;20253;-86
2021/10/08 05:12:25;;;;;;;77.60;39.40;;;;;;;4.40;100.00;102636.91;5041996;28;20186;-87
2021/10/08 05:14:52;;;;;;;84.60;40.10;;;;;;;4.39;100.00;102633.41;5049925;28;20083;-87
2021/10/08 05:17:17;;;;;;;91.90;42.25;;;;;;;4.37;100.00;102642.41;5041031;28;20089;-88
2021/10/08 05:19:43;;;;;;;98.63;42.88;;;;;;;4.32;100.00;102639.13;5058470;28;20040;-89
2021/10/08 05:22:08;;;;;;;114.50;45.05;;;;;;;4.35;100.00;102638.97;5065835;28;20273;-88
2021/10/08 05:24:33;;;;;;;84.88;41.97;;;;;;;4.37;100.00;102643.25;5066155;28;20081;-86
2021/10/08 05:26:59;;;;;;;73.20;39.30;;;;;;;4.35;100.00;102639.84;5083398;28;20036;-92
2021/10/08 05:29:24;;;;;;;76.63;41.33;;;;;;;4.33;100.00;102641.69;5069079;28;20131;-85
2021/10/08 05:31:49;;;;;;;76.50;40.00;;;;;;;4.33;100.00;102643.50;5067287;28;20044;-87
2021/10/08 05:34:15;;;;;;;73.63;39.20;;;;;;;4.28;100.00;102647.25;5065474;28;20041;-88
2021/10/08 05:36:41;;;;;;;71.25;38.33;;;;;;;4.29;100.00;102642.81;5081086;28;20051;-88
2021/10/08 05:39:06;;;;;;;75.03;38.70;;;;;;;4.25;100.00;102650.06;5031473;28;20040;-87
2021/10/08 05:41:32;;;;;;;71.72;37.22;;;;;;;4.25;100.00;102651.84;5079924;28;20047;-85
2021/10/08 05:43:57;;;;;;;66.03;37.47;;;;;;;4.25;100.00;102652.72;5070699;28;20036;-88
2021/10/08 05:46:22;;;;;;;72.95;38.42;;;;;;;4.22;100.00;102654.69;5053539;28;20044;-86
2021/10/08 05:48:48;;;;;;;62.97;36.10;;;;;;;4.20;100.00;102662.75;5073846;28;20041;-88
2021/10/08 05:51:14;;;;;;;68.05;37.08;;;;;;;4.18;100.00;102653.97;5071039;28;20106;-89
2021/10/08 05:53:39;;;;;;;64.82;36.55;;;;;;;4.16;100.00;102661.16;5017471;28;20044;-89
2021/10/08 05:56:07;;;;;;;62.70;35.22;;;;;;;4.15;100.00;102661.25;5057815;28;20128;-85
2021/10/08 05:58:32;;;;;;;64.30;35.90;;;;;;;4.15;100.00;102667.41;5055092;28;20128;-88
2021/10/08 06:00:58;;;;;;;61.45;36.03;;;;;;;4.15;100.00;102661.25;5065663;28;20128;-89
2021/10/08 06:03:23;;;;;;;61.67;35.47;;;;;;;4.13;100.00;102663.97;5066404;28;20041;-89
2021/10/08 06:05:49;;;;;;;62.95;34.58;;;;;;;4.14;100.00;102665.69;5067274;28;20394;-85
2021/10/08 06:08:14;;;;;;;58.42;33.00;;;;;;;4.14;100.00;102667.47;5066929;28;20127;-85
2021/10/08 06:10:40;;;;;;;63.42;34.80;;;;;;;4.13;100.00;102671.94;5064170;28;20044;-86
2021/10/08 06:13:06;;;;;;;58.60;33.95;;;;;;;4.12;100.00;102678.19;5073951;28;20040;-85
2021/10/08 06:15:32;;;;;;;56.10;34.28;;;;;;;4.11;100.00;102676.47;5024758;28;20072;-87
2021/10/08 06:17:57;;;;;;;59.45;35.13;;;;;;;4.13;100.00;102679.91;5041148;28;20056;-88
2021/10/08 06:20:25;;;;;;;58.13;32.65;;;;;;;4.17;100.00;102681.50;5020313;28;20041;-89
2021/10/08 06:22:53;;;;;;;51.55;30.90;;;;;;;4.16;100.00;102681.56;5046477;28;20389;-87
2021/10/08 06:25:19;;;;;;;53.05;32.33;;;;;;;4.18;100.00;102685.88;5033214;28;20154;-84
2021/10/08 06:27:51;;;;;;;53.17;32.20;;;;;;;4.18;100.00;102682.34;5045753;28;20041;-85
2021/10/08 06:30:18;;;;;;;52.55;32.10;;;;;;;4.16;100.00;102687.72;5044986;28;20039;-90
2021/10/08 06:32:43;;;;;;;51.70;30.40;;;;;;;4.19;100.00;102692.88;5044466;28;20045;-87
2021/10/08 06:35:09;;;;;;;47.17;29.73;;;;;;;4.25;100.00;102695.25;5045021;28;20279;-87
2021/10/08 06:37:34;;;;;;;55.13;34.30;;;;;;;4.31;100.00;102699.38;5082147;28;20040;-90
2021/10/08 06:40:00;;;;;;;53.28;34.80;;;;;;;4.36;100.00;102691.19;5065466;28;20704;-89
2021/10/08 06:42:25;;;;;;;57.92;35.72;;;;;;;4.43;100.00;102703.22;5063997;28;20052;-89
2021/10/08 06:44:56;;;;;;;53.30;35.28;;;;;;;4.49;100.00;102698.47;5060844;28;20493;-90
2021/10/08 06:47:22;;;;;;;58.08;36.95;;;;;;;4.49;100.00;102698.47;5056493;28;20037;-86
2021/10/08 06:49:47;;;;;;;67.65;40.30;;;;;;;4.63;100.00;102703.09;5066401;28;20090;-89
2021/10/08 06:52:13;;;;;;;54.90;34.08;;;;;;;4.71;100.00;102708.00;5065032;28;20048;-85
2021/10/08 06:54:38;;;;;;;64.47;38.22;;;;;;;4.80;100.00;102701.34;5052562;28;20049;-87
2021/10/08 06:57:04;;;;;;;53.03;33.28;;;;;;;4.90;100.00;102705.25;5059548;28;20047;-87
2021/10/08 06:59:29;;;;;;;63.30;38.78;;;;;;;4.97;100.00;102703.97;5066268;28;20739;-85
2021/10/08 07:01:54;;;;;;;68.85;41.90;;;;;;;5.07;100.00;102704.34;5062037;28;20037;-88
2021/10/08 07:04:20;;;;;;;69.70;43.42;;;;;;;5.15;100.00;102696.78;5061661;28;20047;-87
2021/10/08 07:06:46;;;;;;;74.80;42.83;;;;;;;5.26;100.00;102697.06;5062603;28;20044;-92
2021/10/08 07:09:12;;;;;;;69.13;39.60;;;;;;;5.38;100.00;102704.41;5072392;28;20579;-86
2021/10/08 07:11:37;;;;;;;82.95;45.13;;;;;;;5.51;100.00;102701.06;5052919;28;20048;-88
2021/10/08 07:14:03;;;;;;;71.43;44.00;;;;;;;5.61;100.00;102703.16;5043605;28;20481;-86
2021/10/08 07:16:28;;;;;;;79.03;46.35;;;;;;;5.68;100.00;102705.47;5039870;28;20039;-89
2021/10/08 07:18:55;;;;;;;68.55;42.30;;;;;;;5.76;100.00;102708.56;5057779;28;20500;-90
2021/10/08 07:21:22;;;;;;;75.63;43.63;;;;;;;5.81;100.00;102714.47;5065525;28;20075;-86
2021/10/08 07:23:48;;;;;;;74.78;43.75;;;;;;;5.89;100.00;102709.56;5054935;28;20146;-84
2021/10/08 07:26:18;;;;;;;77.80;46.28;;;;;;;6.00;100.00;102712.53;5062238;28;20036;-86
2021/10/08 07:28:44;;;;;;;74.47;44.97;;;;;;;6.09;100.00;102712.00;5074350;28;20109;-85
2021/10/08 07:31:10;;;;;;;81.22;45.28;;;;;;;6.18;100.00;102709.75;5066379;28;20489;-87
2021/10/08 07:33:36;;;;;;;76.03;43.72;;;;;;;6.27;100.00;102717.19;5088186;28;20072;-90
2021/10/08 07:36:02;;;;;;;72.93;43.72;;;;;;;6.37;100.00;102713.06;5065913;28;20036;-87
2021/10/08 07:38:28;;;;;;;82.75;45.83;;;;;;;6.53;100.00;102716.56;5065401;28;20036;-90
2021/10/08 07:40:53;;;;;;;78.70;42.75;;;;;;;6.65;100.00;102714.09;5066059;28;20378;-86
2021/10/08 07:43:19;;;;;;;79.03;43.10;;;;;;;6.75;100.00;102710.78;5044989;28;20069;-88
2021/10/08 07:45:44;;;;;;;70.90;45.05;;;;;;;6.90;100.00;102716.97;5067973;28;20123;-88
2021/10/08 07:48:10;;;;;;;67.38;40.45;;;;;;;6.98;100.00;102714.72;5054049;28;20036;-85
2021/10/08 07:50:42;;;;;;;63.92;39.97;;;;;;;7.12;100.00;102724.53;5068971;28;20159;-89
2021/10/08 07:53:07;;;;;;;71.15;41.30;;;;;;;7.21;100.00;102715.97;5035145;28;20037;-91
2021/10/08 07:55:34;;;;;;;69.05;38.47;;;;;;;7.35;100.00;102715.09;5051385;28;20644;-92
2021/10/08 07:58:00;;;;;;;64.43;38.63;;;;;;;7.49;100.00;102716.06;5066225;28;20058;-89
2021/10/08 08:00:25;;;;;;;74.47;42.35;;;;;;;7.63;100.00;102718.72;5061581;28;20041;-88
2021/10/08 08:02:50;;;;;;;62.53;40.83;;;;;;;7.74;100.00;102716.22;5031819;28;20048;-91
2021/10/08 08:05:16;;;;;;;68.00;37.42;;;;;;;7.81;100.00;102722.00;5060763;28;20047;-86
2021/10/08 08:07:41;;;;;;;60.45;38.20;;;;;;;7.91;100.00;102724.00;5057420;28;20028;-86
2021/10/08 08:10:10;;;;;;;54.92;37.45;;;;;;;7.94;100.00;102727.41;5050377;28;20044;-87
2021/10/08 08:12:36;;;;;;;61.15;37.47;;;;;;;8.10;100.00;102728.97;5064610;28;20049;-86
2021/10/08 08:15:03;;;;;;;58.70;37.30;;;;;;;8.26;100.00;102728.84;5065451;28;20079;-86
2021/10/08 08:17:30;;;;;;;49.28;32.60;;;;;;;8.32;100.00;102723.06;5060508;28;20044;-89
2021/10/08 08:19:55;;;;;;;45.75;32.03;;;;;;;8.34;100.00;102720.28;5043654;28;20060;-87
2021/10/08 08:22:21;;;;;;;48.08;32.70;;;;;;;8.45;100.00;102724.94;5048968;28;20425;-90
2021/10/08 08:24:47;;;;;;;52.42;32.67;;;;;;;8.60;100.00;102726.56;5045067;28;20045;-86
2021/10/08 08:27:13;;;;;;;49.95;32.63;;;;;;;8.77;100.00;102728.97;5035096;28;20091;-89
2021/10/08 08:29:38;;;;;;;46.10;31.40;;;;;;;8.92;100.00;102732.41;5037323;28;20375;-87
2021/10/08 08:32:04;;;;;;;44.88;28.13;;;;;;;8.93;100.00;102733.28;5052360;28;20142;-85
2021/10/08 08:34:30;;;;;;;46.35;31.48;;;;;;;9.03;100.00;102728.97;5027178;28;20087;-89
2021/10/08 08:36:56;;;;;;;39.85;29.52;;;;;;;9.26;100.00;102730.91;5045839;28;20045;-90
2021/10/08 08:39:24;;;;;;;38.22;26.23;;;;;;;9.35;100.00;102724.06;5039203;28;20041;-89
2021/10/08 08:41:50;;;;;;;39.05;26.98;;;;;;;9.43;100.00;102732.38;5044207;28;20507;-85
2021/10/08 08:44:15;;;;;;;37.72;25.75;;;;;;;9.60;100.00;102733.00;5049828;28;20269;-89
2021/10/08 08:46:41;;;;;;;40.20;26.88;;;;;;;9.75;100.00;102736.38;5049050;28;20322;-88
2021/10/08 08:49:14;;;;;;;38.10;26.83;;;;;;;9.78;100.00;102728.13;5057887;28;20378;-89
2021/10/08 08:51:41;;;;;;;41.38;28.13;;;;;;;9.94;100.00;102731.41;5026884;28;20056;-86
2021/10/08 08:54:07;;;;;;;46.08;30.23;;;;;;;10.21;100.00;102722.28;5052807;28;20134;-86
2021/10/08 08:56:36;;;;;;;40.88;27.98;;;;;;;10.46;100.00;102721.31;5061442;28;20029;-86
2021/10/08 08:59:05;;;;;;;36.97;26.30;;;;;;;10.58;100.00;102715.00;5056938;28;20044;-85
2021/10/08 09:01:32;;;;;;;39.17;25.70;;;;;;;10.72;100.00;102722.00;5058297;28;20327;-86
2021/10/08 09:04:06;;;;;;;37.85;24.48;;;;;;;10.78;100.00;102718.84;5066137;28;20284;-86
2021/10/08 09:06:33;;;;;;;33.17;23.77;;;;;;;10.90;100.00;102717.88;5047363;28;20052;-90
2021/10/08 09:09:10;;;;;;;32.40;23.42;;;;;;;10.93;100.00;102714.94;5049739;28;20501;-86
2021/10/08 09:11:42;;;;;;;29.90;22.63;;;;;;;11.04;100.00;102706.06;5040040;28;20175;-86
2021/10/08 09:14:15;;;;;;;33.20;22.13;;;;;;;11.26;100.00;102705.22;5041022;28;20110;-89
2021/10/08 09:17:16;;;;;;;27.40;20.67;;;;;;;11.37;100.00;102705.22;5054555;28;20078;-86
2021/10/08 09:19:59;;;;;;;30.02;20.77;;;;;;;11.52;100.00;102703.97;5043665;28;20062;-85
2021/10/08 09:22:49;;;;;;;26.48;19.75;;;;;;;11.60;99.19;102707.91;5037730;28;20056;-83
2021/10/08 09:25:26;;;;;;;28.35;19.83;;;;;;;11.70;99.95;102706.16;5064524;28;20029;-87
2021/10/08 09:27:55;;;;;;;28.42;19.85;;;;;;;11.80;97.10;102715.19;5052146;28;20045;-86
2021/10/08 09:30:43;;;;;;;26.05;20.00;;;;;;;11.85;94.82;102706.72;5048406;28;20047;-88
2021/10/08 09:33:14;;;;;;;27.55;19.23;;;;;;;12.03;97.08;102709.78;5081552;28;20124;-93
2021/10/08 09:35:40;;;;;;;28.42;20.70;;;;;;;12.13;96.65;102710.72;5062273;28;20037;-89
2021/10/08 09:38:10;;;;;;;28.40;20.25;;;;;;;12.37;98.69;102708.69;5064355;28;20055;-90
2021/10/08 09:40:55;;;;;;;27.73;20.60;;;;;;;12.44;96.13;102708.16;5043519;28;20090;-86
2021/10/08 09:43:28;;;;;;;25.90;18.17;;;;;;;12.67;94.97;102704.34;5052423;28;20052;-84
2021/10/08 09:45:56;;;;;;;24.42;17.27;;;;;;;12.64;93.79;102699.22;5060390;28;20734;-92
2021/10/08 09:48:31;;;;;;;22.73;18.17;;;;;;;12.78;93.79;102706.97;5062205;28;20040;-84
2021/10/08 09:51:04;;;;;;;25.77;17.60;;;;;;;12.93;92.93;102703.94;5062393;28;20186;-91
2021/10/08 09:53:35;;;;;;;23.33;17.63;;;;;;;13.08;92.77;102698.06;5059965;28;20040;-86
2021/10/08 09:56:23;;;;;;;20.05;14.98;;;;;;;13.28;91.91;102706.28;5061497;28;20060;-86
2021/10/08 09:58:54;;;;;;;19.50;13.97;;;;;;;13.40;91.20;102701.63;5032261;28;20048;-85
2021/10/08 10:01:29;;;;;;;18.92;15.10;;;;;;;13.44;89.80;102700.38;5047914;28;20245;-87
2021/10/08 10:03:58;;;;;;;17.65;13.77;;;;;;;13.49;90.99;102701.69;5066042;28;20048;-87
2021/10/08 10:06:24;;;;;;;17.30;13.40;;;;;;;13.59;88.04;102698.16;5056166;28;20037;-89
2021/10/08 10:08:51;;;;;;;17.30;13.10;;;;;;;13.63;87.94;102697.72;5062435;28;20222;-92
2021/10/08 10:11:23;;;;;;;18.67;14.00;;;;;;;13.73;89.00;102703.16;5042367;28;20445;-87
2021/10/08 10:13:57;;;;;;;16.30;12.32;;;;;;;13.95;88.02;102697.53;5062951;28;20037;-90
2021/10/08 10:16:25;;;;;;;16.55;12.85;;;;;;;13.96;87.69;102701.06;5061717;28;20404;-90
2021/10/08 10:18:52;;;;;;;17.08;11.75;;;;;;;14.08;87.97;102702.66;5056519;28;20132;-86
2021/10/08 10:21:27;;;;;;;15.95;11.38;;;;;;;14.15;85.80;102705.63;5062170;28;20245;-84
2021/10/08 10:23:55;;;;;;;14.93;11.57;;;;;;;14.24;86.19;102704.78;5037797;28;20069;-85
2021/10/08 10:26:23;;;;;;;15.32;11.73;;;;;;;14.36;88.23;102689.31;5049268;28;20122;-90
2021/10/08 10:28:50;;;;;;;18.30;12.30;;;;;;;14.51;86.53;102695.13;5045158;28;20090;-84
2021/10/08 10:31:16;;;;;;;13.25;10.50;;;;;;;14.55;84.57;102702.78;5053936;28;20095;-86
2021/10/08 10:33:43;;;;;;;13.90;10.63;;;;;;;14.59;85.50;102701.53;5039252;28;20039;-89
2021/10/08 10:36:23;;;;;;;15.98;11.20;;;;;;;14.68;84.97;102699.81;5039670;28;20044;-92
2021/10/08 10:39:12;;;;;;;13.55;10.77;;;;;;;14.77;83.68;102693.53;5041236;28;20057;-89
2021/10/08 10:42:12;;;;;;;15.38;9.85;;;;;;;14.84;83.69;102699.19;5043779;28;20501;-88
2021/10/08 10:44:40;;;;;;;11.95;9.45;;;;;;;14.82;82.65;102693.09;5059922;28;20048;-90
2021/10/08 10:47:17;;;;;;;12.95;9.38;;;;;;;14.92;83.67;102693.91;5030884;28;20065;-90
2021/10/08 10:49:50;;;;;;;11.15;8.98;;;;;;;14.96;82.77;102697.16;5045421;28;20473;-89
2021/10/08 10:52:19;;;;;;;12.48;8.80;;;;;;;15.04;83.52;102687.31;5043754;28;20340;-89
2021/10/08 10:54:53;;;;;;;12.20;8.00;;;;;;;15.16;81.96;102692.53;5066272;28;20095;-90
2021/10/08 10:57:20;;;;;;;10.70;7.88;;;;;;;15.19;83.02;102693.13;5059881;28;20405;-88
2021/10/08 10:59:49;;;;;;;11.18;8.63;;;;;;;15.26;82.26;102687.97;5072109;28;20127;-89
2021/10/08 11:02:23;;;;;;;10.65;8.45;;;;;;;15.33;81.90;102687.22;5028537;28;20059;-88
2021/10/08 11:04:56;;;;;;;9.70;7.65;;;;;;;15.41;82.11;102678.34;5050184;28;20047;-88
2021/10/08 11:07:23;;;;;;;9.40;7.10;;;;;;;15.52;80.60;102685.41;5049043;28;20077;-92
2021/10/08 11:10:06;;;;;;;8.30;6.68;;;;;;;15.65;80.98;102687.75;5073271;28;20048;-93
2021/10/08 11:12:37;;;;;;;8.35;6.00;;;;;;;15.73;79.52;102679.75;5069500;28;20086;-87